Time;durP1;ratioP1;P1;durP2;ratioP2;P2;SDS_P1;SDS_P2;PMS_P1;PMS_P2;Temp;Humidity;BMP_temperature;BMP_pressure;BME280_temperature;BME280_humidity;BME280_pressure;Samples;Min_cycle;Max_cycle;Signal;HPM_P1;HPM_P2
2021/10/06 00:02:21;;;;;;;3.13;0.60;;;14.80;1.00;;;;;;4982882;28;21357;-82
2021/10/06 00:04:49;;;;;;;0.67;0.50;;;14.70;1.00;;;;;;5002224;28;20456;-82
2021/10/06 00:07:17;;;;;;;1.10;0.50;;;14.60;1.00;;;;;;5008884;28;20522;-82
2021/10/06 00:09:45;;;;;;;1.57;0.60;;;14.80;1.00;;;;;;4989704;28;20486;-83
2021/10/06 00:12:14;;;;;;;1.67;0.57;;;14.60;1.00;;;;;;4997182;28;20460;-84
2021/10/06 00:14:42;;;;;;;1.73;0.60;;;14.60;1.00;;;;;;5011854;28;20532;-83
2021/10/06 00:17:25;;;;;;;0.57;0.57;;;14.60;99.90;;;;;;4992591;28;20485;-83
2021/10/06 00:19:54;;;;;;;1.07;0.60;;;14.50;1.00;;;;;;5008819;28;20462;-83
2021/10/06 00:22:22;;;;;;;0.53;0.53;;;14.40;1.00;;;;;;4990764;28;20456;-84
2021/10/06 00:24:51;;;;;;;1.80;0.90;;;14.50;1.00;;;;;;5008088;28;20445;-82
2021/10/06 00:27:19;;;;;;;1.73;0.53;;;14.50;1.00;;;;;;5009591;28;20473;-82
2021/10/06 00:29:47;;;;;;;1.23;0.60;;;14.60;99.90;;;;;;5005008;28;20456;-83
2021/10/06 00:32:16;;;;;;;1.27;0.60;;;14.70;99.90;;;;;;5009680;28;21147;-82
2021/10/06 00:34:45;;;;;;;2.00;0.70;;;14.70;99.90;;;;;;5010174;28;20509;-82
2021/10/06 00:37:13;;;;;;;0.70;0.67;;;14.50;99.90;;;;;;5010257;28;20485;-82
2021/10/06 00:39:42;;;;;;;0.83;0.50;;;14.60;1.00;;;;;;5010695;28;20468;-82
2021/10/06 00:42:10;;;;;;;1.80;0.50;;;14.60;99.90;;;;;;5010463;28;20458;-81
2021/10/06 00:44:39;;;;;;;0.90;0.60;;;14.40;99.90;;;;;;5010784;28;20459;-82
2021/10/06 00:47:12;;;;;;;0.50;0.50;;;14.40;1.00;;;;;;4996188;28;20537;-82
2021/10/06 00:49:41;;;;;;;1.47;0.80;;;14.30;1.00;;;;;;5013880;28;20485;-82
2021/10/06 00:52:13;;;;;;;1.60;0.70;;;14.40;1.00;;;;;;5008807;28;20456;-82
2021/10/06 00:54:42;;;;;;;0.50;0.50;;;14.50;1.00;;;;;;5002243;28;20462;-85
2021/10/06 00:57:11;;;;;;;1.13;0.53;;;14.40;1.00;;;;;;5010203;28;20460;-83
2021/10/06 00:59:40;;;;;;;0.97;0.70;;;14.40;1.00;;;;;;5009335;28;20462;-82
2021/10/06 01:02:08;;;;;;;0.83;0.50;;;14.40;1.00;;;;;;5009037;28;20455;-83
2021/10/06 01:04:38;;;;;;;0.70;0.50;;;14.40;1.00;;;;;;5010299;28;20443;-83
2021/10/06 01:07:06;;;;;;;0.73;0.70;;;14.50;99.90;;;;;;5010887;28;20485;-82
2021/10/06 01:09:37;;;;;;;1.03;0.60;;;14.60;99.90;;;;;;5009503;28;20446;-84
2021/10/06 01:12:06;;;;;;;2.73;0.60;;;14.60;99.90;;;;;;4992542;28;20516;-82
2021/10/06 01:14:35;;;;;;;0.97;0.67;;;14.60;99.90;;;;;;4994089;28;20467;-82
2021/10/06 01:17:03;;;;;;;0.80;0.60;;;14.40;99.90;;;;;;5009514;28;20466;-81
2021/10/06 01:19:32;;;;;;;1.07;0.70;;;14.60;99.90;;;;;;5001376;28;20486;-80
2021/10/06 01:22:01;;;;;;;0.60;0.57;;;14.60;99.90;;;;;;5003997;28;21396;-81
2021/10/06 01:24:29;;;;;;;0.80;0.60;;;14.70;99.90;;;;;;5006420;28;20520;-84
2021/10/06 01:26:59;;;;;;;0.60;0.60;;;14.80;99.90;;;;;;5005713;28;20471;-81
2021/10/06 01:29:28;;;;;;;0.70;0.60;;;14.80;99.90;;;;;;5007872;28;20452;-79
2021/10/06 01:31:56;;;;;;;2.10;0.70;;;14.60;99.90;;;;;;5003553;28;20947;-81
2021/10/06 01:34:27;;;;;;;1.23;1.23;;;14.50;99.90;;;;;;5008233;28;20457;-84
2021/10/06 01:36:55;;;;;;;0.77;0.70;;;14.50;99.90;;;;;;5007925;28;20476;-80
2021/10/06 01:39:25;;;;;;;0.53;0.50;;;14.40;99.90;;;;;;4989146;28;20970;-81
2021/10/06 01:41:53;;;;;;;0.60;0.50;;;14.30;99.90;;;;;;5001325;28;20449;-80
2021/10/06 01:44:21;;;;;;;0.90;0.70;;;14.20;99.90;;;;;;5007193;28;20443;-81
2021/10/06 01:46:51;;;;;;;1.70;0.60;;;14.20;99.90;;;;;;4988487;28;20519;-83
2021/10/06 01:49:19;;;;;;;0.70;0.60;;;14.00;99.90;;;;;;5007593;28;20444;-82
2021/10/06 01:51:47;;;;;;;0.50;0.50;;;13.90;1.00;;;;;;4989988;28;20501;-82
2021/10/06 01:54:15;;;;;;;0.83;0.70;;;13.70;1.00;;;;;;4999669;28;20465;-82
2021/10/06 01:56:45;;;;;;;0.70;0.50;;;13.80;1.00;;;;;;4998984;28;20459;-81
2021/10/06 01:59:13;;;;;;;2.10;0.70;;;13.90;1.00;;;;;;5007239;28;20494;-83
2021/10/06 02:01:42;;;;;;;1.33;0.50;;;13.80;1.00;;;;;;4990302;28;20455;-79
2021/10/06 02:04:10;;;;;;;1.23;0.60;;;13.80;1.00;;;;;;4988888;28;20452;-83
2021/10/06 02:06:38;;;;;;;2.20;0.50;;;13.80;1.00;;;;;;5004670;28;20456;-84
2021/10/06 02:09:06;;;;;;;2.77;2.07;;;13.80;1.00;;;;;;5006847;28;20500;-81
2021/10/06 02:11:38;;;;;;;1.17;0.70;;;13.70;1.00;;;;;;5004603;28;20571;-81
2021/10/06 02:14:07;;;;;;;0.60;0.60;;;13.80;1.00;;;;;;5003469;28;20700;-82
2021/10/06 02:16:36;;;;;;;0.47;0.47;;;14.00;1.00;;;;;;5005506;28;20513;-82
2021/10/06 02:19:04;;;;;;;0.80;0.60;;;13.90;99.90;;;;;;4986906;28;20475;-81
2021/10/06 02:21:34;;;;;;;1.13;0.70;;;13.80;1.00;;;;;;5004698;28;20995;-81
2021/10/06 02:24:03;;;;;;;0.50;0.50;;;13.80;1.00;;;;;;5006606;28;21008;-82
2021/10/06 02:26:31;;;;;;;0.50;0.50;;;13.60;1.00;;;;;;5007386;28;20458;-80
2021/10/06 02:28:59;;;;;;;0.97;0.63;;;13.40;1.00;;;;;;5002040;28;20522;-80
2021/10/06 02:31:29;;;;;;;0.50;0.50;;;13.40;1.00;;;;;;5001913;28;20808;-81
2021/10/06 02:33:57;;;;;;;0.97;0.57;;;13.40;1.00;;;;;;5006464;28;20449;-81
2021/10/06 02:36:25;;;;;;;0.83;0.60;;;13.30;1.00;;;;;;4995145;28;20822;-80
2021/10/06 02:38:53;;;;;;;0.97;0.70;;;13.20;1.00;;;;;;4978368;28;20467;-82
2021/10/06 02:41:21;;;;;;;1.80;0.60;;;13.00;44.60;;;;;;4984897;28;21048;-82
2021/10/06 02:43:49;;;;;;;0.60;0.60;;;13.30;1.00;;;;;;5005214;28;20459;-79
2021/10/06 02:46:18;;;;;;;3.50;0.60;;;13.40;1.00;;;;;;4986943;28;20829;-80
2021/10/06 02:48:47;;;;;;;0.70;0.50;;;13.30;1.00;;;;;;5002275;28;20466;-77
2021/10/06 02:51:15;;;;;;;0.60;0.60;;;13.30;1.00;;;;;;4996066;28;21408;-80
2021/10/06 02:53:43;;;;;;;0.40;0.40;;;13.10;55.90;;;;;;4985220;28;20505;-80
2021/10/06 02:56:12;;;;;;;2.30;0.90;;;13.40;1.00;;;;;;4983880;28;21037;-80
2021/10/06 02:58:40;;;;;;;0.70;0.70;;;13.40;1.00;;;;;;4991410;28;20475;-79
2021/10/06 03:01:08;;;;;;;1.13;0.50;;;13.20;1.00;;;;;;4996099;28;20458;-80
2021/10/06 03:03:36;;;;;;;0.70;0.70;;;13.00;99.90;;;;;;5004250;28;20457;-82
2021/10/06 03:06:06;;;;;;;0.77;0.60;;;13.00;99.90;;;;;;4985549;28;20525;-80
2021/10/06 03:08:34;;;;;;;0.80;0.60;;;13.20;1.00;;;;;;5005553;28;20520;-79
2021/10/06 03:11:02;;;;;;;2.53;0.67;;;13.20;1.00;;;;;;4988284;28;20469;-80
2021/10/06 03:13:31;;;;;;;0.87;0.50;;;13.10;62.40;;;;;;5006579;28;20871;-82
2021/10/06 03:16:00;;;;;;;0.67;0.67;;;13.20;1.00;;;;;;5006120;28;20445;-80
2021/10/06 03:18:28;;;;;;;1.47;0.70;;;13.30;1.00;;;;;;4995541;28;20484;-79
2021/10/06 03:20:58;;;;;;;0.80;0.60;;;13.10;1.00;;;;;;4996100;28;20456;-80
2021/10/06 03:23:28;;;;;;;1.87;0.83;;;13.10;56.90;;;;;;5005902;28;20455;-79
2021/10/06 03:25:56;;;;;;;0.70;0.70;;;13.10;1.00;;;;;;4988415;28;21104;-78
2021/10/06 03:28:25;;;;;;;1.20;0.70;;;13.60;1.00;;;;;;4988500;28;20471;-81
2021/10/06 03:30:53;;;;;;;0.50;0.50;;;13.30;1.00;;;;;;4985623;28;20459;-81
2021/10/06 03:33:21;;;;;;;3.17;0.77;;;13.00;1.00;;;;;;5010300;28;20949;-83
2021/10/06 03:35:49;;;;;;;2.67;0.90;;;12.90;29.50;;;;;;5013107;28;20455;-82
2021/10/06 03:38:17;;;;;;;1.13;0.50;;;12.90;32.90;;;;;;4994930;28;20867;-82
2021/10/06 03:40:47;;;;;;;0.60;0.60;;;12.80;99.90;;;;;;5003824;28;20477;-79
2021/10/06 03:43:15;;;;;;;0.90;0.60;;;12.90;99.90;;;;;;5004679;28;21364;-79
2021/10/06 03:45:43;;;;;;;0.57;0.57;;;12.80;99.90;;;;;;5005448;28;20443;-79
2021/10/06 03:48:11;;;;;;;1.87;0.70;;;12.90;47.80;;;;;;5005146;28;20487;-82
2021/10/06 03:50:40;;;;;;;2.10;0.70;;;13.00;11.40;;;;;;4995636;28;20454;-79
2021/10/06 03:53:09;;;;;;;2.40;0.63;;;13.10;1.00;;;;;;5004560;28;20468;-82
2021/10/06 03:55:37;;;;;;;0.97;0.60;;;13.20;1.00;;;;;;5004561;28;20517;-81
2021/10/06 03:58:07;;;;;;;2.00;0.60;;;12.80;64.40;;;;;;4986553;28;20493;-82
2021/10/06 04:00:36;;;;;;;0.60;0.50;;;12.80;55.60;;;;;;5003993;28;20512;-80
2021/10/06 04:03:10;;;;;;;1.50;0.60;;;12.80;97.40;;;;;;5005297;28;20476;-82
2021/10/06 04:05:39;;;;;;;1.20;0.70;;;12.80;99.90;;;;;;5001264;28;20457;-80
2021/10/06 04:08:08;;;;;;;1.20;0.70;;;12.70;99.90;;;;;;5003321;28;20535;-79
2021/10/06 04:10:36;;;;;;;1.93;0.80;;;12.70;99.00;;;;;;4978659;28;20965;-83
2021/10/06 04:13:05;;;;;;;0.87;0.70;;;12.80;38.10;;;;;;4990271;28;21054;-79
2021/10/06 04:15:34;;;;;;;1.03;0.60;;;12.70;99.90;;;;;;4977552;28;20442;-82
2021/10/06 04:18:05;;;;;;;0.77;0.60;;;12.70;99.90;;;;;;4999005;28;20501;-82
2021/10/06 04:20:33;;;;;;;0.50;0.50;;;12.90;1.00;;;;;;5001401;28;20488;-82
2021/10/06 04:23:01;;;;;;;2.23;0.70;;;13.00;1.00;;;;;;4989111;28;20477;-81
2021/10/06 04:25:30;;;;;;;0.83;0.70;;;12.90;1.00;;;;;;5007262;28;20450;-82
2021/10/06 04:27:58;;;;;;;0.63;0.50;;;12.70;46.40;;;;;;5007253;28;20492;-83
2021/10/06 04:30:27;;;;;;;1.03;0.70;;;12.90;1.00;;;;;;5002740;28;20490;-83
2021/10/06 04:32:56;;;;;;;1.50;0.77;;;13.00;1.00;;;;;;5001303;28;20460;-81
2021/10/06 04:35:25;;;;;;;1.50;0.70;;;12.90;1.00;;;;;;4992993;28;20453;-77
2021/10/06 04:37:54;;;;;;;0.67;0.60;;;12.70;1.20;;;;;;4993597;28;21359;-73
2021/10/06 04:40:22;;;;;;;0.50;0.50;;;12.50;99.90;;;;;;4992161;28;20478;-79
2021/10/06 04:42:50;;;;;;;2.77;0.60;;;12.50;99.90;;;;;;4998084;28;20461;-82
2021/10/06 04:45:18;;;;;;;1.10;0.60;;;12.60;99.90;;;;;;4985937;28;20809;-83
2021/10/06 04:47:47;;;;;;;0.67;0.67;;;12.40;99.90;;;;;;4996582;28;20505;-80
2021/10/06 04:50:16;;;;;;;0.53;0.53;;;12.50;99.90;;;;;;4970083;28;20482;-78
2021/10/06 04:52:45;;;;;;;0.70;0.70;;;12.50;99.90;;;;;;5001136;28;20455;-81
2021/10/06 04:55:13;;;;;;;0.70;0.70;;;12.50;99.90;;;;;;5007548;28;20457;-83
2021/10/06 04:57:41;;;;;;;1.00;0.60;;;12.50;99.90;;;;;;5003589;28;20492;-83
2021/10/06 05:00:10;;;;;;;0.83;0.63;;;12.50;99.90;;;;;;5006485;28;20477;-82
2021/10/06 05:02:38;;;;;;;0.83;0.70;;;12.70;99.90;;;;;;4993335;28;20545;-83
2021/10/06 05:05:07;;;;;;;0.70;0.67;;;12.70;46.60;;;;;;4998576;28;20447;-83
2021/10/06 05:07:37;;;;;;;0.60;0.60;;;12.80;1.00;;;;;;5007746;28;21005;-83
2021/10/06 05:10:06;;;;;;;1.60;0.57;;;12.70;1.00;;;;;;5007036;28;20511;-79
2021/10/06 05:12:34;;;;;;;0.60;0.60;;;12.70;3.90;;;;;;5006544;28;20518;-83
2021/10/06 05:15:02;;;;;;;0.60;0.60;;;12.70;32.10;;;;;;5006481;28;20464;-82
2021/10/06 05:17:30;;;;;;;0.93;0.60;;;12.70;4.60;;;;;;5006268;28;20473;-79
2021/10/06 05:19:58;;;;;;;0.90;0.60;;;12.40;99.90;;;;;;4985039;28;20480;-79
2021/10/06 05:22:26;;;;;;;0.90;0.50;;;12.40;99.90;;;;;;4993876;28;20965;-85
2021/10/06 05:24:56;;;;;;;1.33;0.63;;;12.30;99.90;;;;;;5005245;28;20753;-82
2021/10/06 05:27:24;;;;;;;0.80;0.50;;;12.30;99.90;;;;;;5003364;28;21271;-82
2021/10/06 05:29:52;;;;;;;0.70;0.60;;;12.20;99.90;;;;;;5000455;28;21010;-83
2021/10/06 05:32:20;;;;;;;0.77;0.50;;;12.30;99.90;;;;;;4999396;28;20524;-82
2021/10/06 05:34:48;;;;;;;0.73;0.70;;;12.30;99.90;;;;;;5006929;28;20466;-82
2021/10/06 05:37:17;;;;;;;1.40;0.50;;;12.40;99.90;;;;;;5000873;28;20515;-81
2021/10/06 05:39:45;;;;;;;0.60;0.60;;;12.30;99.90;;;;;;5000088;28;20468;-83
2021/10/06 05:42:15;;;;;;;0.70;0.57;;;12.20;99.90;;;;;;4996373;28;20879;-83
2021/10/06 05:44:43;;;;;;;0.77;0.77;;;12.30;99.90;;;;;;4987723;28;20445;-81
2021/10/06 05:47:12;;;;;;;1.90;0.70;;;12.40;90.10;;;;;;4991498;28;20754;-82
2021/10/06 05:49:40;;;;;;;0.73;0.73;;;12.60;1.00;;;;;;5005604;28;20496;-82
2021/10/06 05:52:08;;;;;;;1.53;0.67;;;12.40;35.40;;;;;;5005991;28;21010;-83
2021/10/06 05:54:36;;;;;;;0.87;0.87;;;12.80;1.00;;;;;;5006396;28;20457;-81
2021/10/06 05:57:05;;;;;;;0.73;0.60;;;12.30;99.90;;;;;;5000896;28;20485;-82
2021/10/06 05:59:34;;;;;;;0.97;0.90;;;12.40;91.70;;;;;;5006540;28;20521;-81
2021/10/06 06:02:03;;;;;;;3.43;0.73;;;12.50;1.90;;;;;;5006243;28;21012;-83
2021/10/06 06:04:31;;;;;;;0.87;0.70;;;12.40;4.50;;;;;;5005500;28;20526;-82
2021/10/06 06:07:01;;;;;;;0.70;0.60;;;12.20;99.90;;;;;;5006767;28;20480;-79
2021/10/06 06:09:30;;;;;;;3.10;0.70;;;12.00;99.90;;;;;;5006049;28;20829;-81
2021/10/06 06:12:00;;;;;;;0.90;0.60;;;11.90;99.90;;;;;;5005712;28;20536;-81
2021/10/06 06:14:29;;;;;;;0.67;0.67;;;12.20;99.90;;;;;;5007251;28;20453;-84
2021/10/06 06:16:59;;;;;;;1.33;0.60;;;12.30;93.90;;;;;;5005880;28;20487;-82
2021/10/06 06:19:27;;;;;;;0.70;0.60;;;12.00;99.90;;;;;;5006257;28;20465;-82
2021/10/06 06:21:55;;;;;;;0.90;0.70;;;12.20;99.90;;;;;;5006301;28;20465;-82
2021/10/06 06:24:23;;;;;;;1.27;0.60;;;12.10;99.90;;;;;;5006153;28;20509;-82
2021/10/06 06:26:52;;;;;;;0.60;0.60;;;12.30;99.90;;;;;;5005625;28;20484;-82
2021/10/06 06:29:20;;;;;;;1.10;1.00;;;12.00;99.90;;;;;;5006931;28;20450;-81
2021/10/06 06:31:48;;;;;;;0.97;0.50;;;12.00;99.90;;;;;;5005873;28;20437;-81
2021/10/06 06:34:17;;;;;;;2.23;0.70;;;12.20;99.90;;;;;;4986477;28;20450;-81
2021/10/06 06:36:46;;;;;;;2.10;0.60;;;12.30;1.00;;;;;;5003069;28;21338;-79
2021/10/06 06:39:14;;;;;;;1.00;0.60;;;12.20;66.90;;;;;;5005245;28;20457;-82
2021/10/06 06:41:42;;;;;;;0.93;0.67;;;12.50;1.00;;;;;;5005409;28;20469;-81
2021/10/06 06:44:10;;;;;;;0.97;0.63;;;12.50;1.00;;;;;;4999513;28;20458;-81
2021/10/06 06:46:39;;;;;;;1.87;0.80;;;12.50;1.00;;;;;;4998879;28;20471;-81
2021/10/06 06:49:07;;;;;;;1.60;0.80;;;12.20;99.90;;;;;;4995750;28;20453;-81
2021/10/06 06:51:37;;;;;;;1.20;0.80;;;12.10;99.90;;;;;;4984265;28;20450;-81
2021/10/06 06:54:05;;;;;;;1.55;0.70;;;12.20;99.90;;;;;;4984662;28;20479;-82
2021/10/06 06:56:38;;;;;;;1.67;0.80;;;12.40;52.10;;;;;;5002451;28;20198;-81
2021/10/06 06:59:08;;;;;;;2.93;0.90;;;12.40;1.00;;;;;;5004316;28;20471;-82
2021/10/06 07:01:37;;;;;;;0.73;0.60;;;12.20;97.90;;;;;;4982453;28;20474;-82
2021/10/06 07:04:05;;;;;;;1.23;0.70;;;12.20;97.40;;;;;;4989209;28;20516;-82
2021/10/06 07:06:34;;;;;;;1.40;0.73;;;12.30;86.90;;;;;;4986532;28;20447;-81
2021/10/06 07:09:05;;;;;;;0.80;0.77;;;12.40;45.70;;;;;;4997422;28;20462;-82
2021/10/06 07:11:34;;;;;;;1.57;1.47;;;12.60;1.00;;;;;;4977706;28;20469;-81
2021/10/06 07:14:03;;;;;;;0.80;0.80;;;12.80;1.00;;;;;;4996361;28;20455;-81
2021/10/06 07:16:31;;;;;;;2.30;0.70;;;12.80;1.00;;;;;;4995732;28;20459;-82
2021/10/06 07:18:59;;;;;;;0.60;0.60;;;12.90;1.00;;;;;;4975324;28;20663;-82
2021/10/06 07:21:27;;;;;;;3.80;0.80;;;12.90;1.00;;;;;;4987257;28;20977;-81
2021/10/06 07:23:55;;;;;;;1.57;0.70;;;12.70;1.00;;;;;;5002598;28;20449;-82
2021/10/06 07:26:25;;;;;;;1.10;0.90;;;12.50;1.00;;;;;;4996431;28;20863;-83
2021/10/06 07:28:53;;;;;;;0.90;0.80;;;12.70;1.00;;;;;;4994081;28;20519;-80
2021/10/06 07:31:22;;;;;;;0.90;0.60;;;12.90;1.00;;;;;;5001120;28;20868;-83
2021/10/06 07:33:50;;;;;;;0.80;0.70;;;12.90;1.00;;;;;;5003734;28;20942;-83
2021/10/06 07:36:18;;;;;;;1.20;0.83;;;13.00;1.00;;;;;;4985935;28;20460;-82
2021/10/06 07:38:47;;;;;;;0.82;0.60;;;13.10;1.00;;;;;;5000790;28;20434;-81
2021/10/06 07:41:15;;;;;;;1.37;0.90;;;13.30;1.00;;;;;;4990893;28;20234;-78
2021/10/06 07:43:45;;;;;;;3.10;0.80;;;13.40;1.00;;;;;;5000080;28;20918;-81
2021/10/06 07:46:14;;;;;;;1.43;1.00;;;13.80;1.00;;;;;;4996358;28;20949;-82
2021/10/06 07:48:42;;;;;;;2.03;0.70;;;14.20;99.90;;;;;;4994042;28;20480;-81
2021/10/06 07:51:11;;;;;;;3.83;0.73;;;14.70;99.90;;;;;;4999910;28;20549;-81
2021/10/06 07:53:39;;;;;;;0.70;0.70;;;15.10;99.90;;;;;;4990878;28;20457;-81
2021/10/06 07:56:08;;;;;;;1.20;1.10;;;15.10;99.90;;;;;;4991788;28;20463;-82
2021/10/06 07:58:36;;;;;;;2.00;1.37;;;14.90;99.90;;;;;;4993022;28;20495;-83
2021/10/06 08:01:06;;;;;;;1.17;0.50;;;14.60;99.90;;;;;;4998084;28;20487;-81
2021/10/06 08:03:34;;;;;;;0.60;0.60;;;14.60;99.90;;;;;;4999463;28;20464;-81
2021/10/06 08:06:03;;;;;;;6.13;0.90;;;14.60;99.90;;;;;;4984987;28;20730;-81
2021/10/06 08:08:31;;;;;;;0.70;0.60;;;14.50;99.90;;;;;;5000603;28;20476;-83
2021/10/06 08:11:01;;;;;;;0.60;0.60;;;14.50;99.90;;;;;;4993789;28;20463;-81
2021/10/06 08:13:29;;;;;;;1.00;0.50;;;14.60;99.90;;;;;;4996266;28;20461;-81
2021/10/06 08:15:59;;;;;;;1.20;0.70;;;14.50;99.90;;;;;;4972119;28;20466;-81
2021/10/06 08:18:28;;;;;;;5.30;0.90;;;14.60;99.90;;;;;;4979684;28;20484;-82
2021/10/06 08:20:57;;;;;;;1.43;0.60;;;14.80;99.90;;;;;;4983316;28;20460;-80
2021/10/06 08:23:28;;;;;;;1.50;0.50;;;15.00;99.90;;;;;;5000376;28;20483;-82
2021/10/06 08:25:56;;;;;;;2.87;1.00;;;14.80;99.90;;;;;;4977562;28;20869;-82
2021/10/06 08:28:24;;;;;;;3.00;0.80;;;14.60;99.90;;;;;;4985949;28;20468;-83
2021/10/06 08:30:52;;;;;;;2.70;0.93;;;14.60;99.90;;;;;;5001835;28;20455;-81
2021/10/06 08:33:21;;;;;;;2.37;0.70;;;14.40;99.90;;;;;;4991030;28;20508;-82
2021/10/06 08:35:53;;;;;;;1.43;0.60;;;14.30;99.90;;;;;;4993932;28;20507;-80
2021/10/06 08:38:22;;;;;;;2.57;0.80;;;14.40;99.90;;;;;;4976824;28;20517;-82
2021/10/06 08:40:50;;;;;;;4.33;0.60;;;14.20;99.90;;;;;;5002791;28;20492;-84
2021/10/06 08:43:19;;;;;;;1.90;0.80;;;14.00;99.90;;;;;;5002054;28;20476;-80
2021/10/06 08:45:47;;;;;;;0.80;0.80;;;14.20;99.90;;;;;;4989628;28;20467;-78
2021/10/06 08:48:15;;;;;;;0.70;0.60;;;14.00;99.90;;;;;;4992740;28;20580;-83
2021/10/06 08:50:43;;;;;;;0.77;0.60;;;14.00;99.90;;;;;;4994446;28;20456;-80
2021/10/06 08:53:13;;;;;;;0.83;0.60;;;13.90;99.90;;;;;;4997182;28;20464;-81
2021/10/06 08:55:41;;;;;;;1.60;0.60;;;14.00;99.90;;;;;;4993428;28;20444;-81
2021/10/06 08:58:09;;;;;;;1.30;0.70;;;14.40;99.90;;;;;;4992880;28;20501;-81
2021/10/06 09:00:53;;;;;;;1.10;0.60;;;14.70;99.90;;;;;;5003580;28;20483;-83
2021/10/06 09:03:26;;;;;;;1.37;0.63;;;14.80;99.90;;;;;;5000784;28;21186;-83
2021/10/06 09:06:08;;;;;;;2.53;0.67;;;14.80;99.90;;;;;;4997212;28;20455;-83
2021/10/06 09:08:39;;;;;;;4.80;0.80;;;14.60;99.90;;;;;;4997863;28;20479;-81
2021/10/06 09:11:08;;;;;;;1.40;0.60;;;14.50;99.90;;;;;;5005262;28;20551;-81
2021/10/06 09:13:39;;;;;;;1.30;0.60;;;14.50;99.90;;;;;;5004551;28;20431;-84
2021/10/06 09:16:08;;;;;;;1.03;0.63;;;14.50;99.90;;;;;;5000623;28;20462;-81
2021/10/06 09:18:37;;;;;;;1.40;0.80;;;14.80;99.90;;;;;;4984455;28;20473;-82
2021/10/06 09:21:08;;;;;;;1.10;0.60;;;15.40;99.90;;;;;;4997033;28;20461;-81
2021/10/06 09:23:39;;;;;;;1.40;0.80;;;15.90;99.90;;;;;;5001185;28;20493;-83
2021/10/06 09:26:09;;;;;;;1.58;0.90;;;16.10;99.90;;;;;;4994754;28;20507;-83
2021/10/06 09:28:39;;;;;;;2.70;0.90;;;16.30;99.90;;;;;;4999408;28;20544;-81
2021/10/06 09:31:11;;;;;;;2.30;0.57;;;16.60;99.90;;;;;;5000374;28;20454;-83
2021/10/06 09:33:41;;;;;;;2.00;0.60;;;17.10;99.90;;;;;;5004688;28;20619;-82
2021/10/06 09:36:14;;;;;;;4.30;0.73;;;17.40;99.90;;;;;;5008256;28;20444;-83
2021/10/06 09:38:51;;;;;;;0.97;0.80;;;17.80;99.90;;;;;;4996700;28;20484;-80
2021/10/06 09:41:36;;;;;;;1.70;0.60;;;18.10;99.90;;;;;;5001455;28;20496;-81
2021/10/06 09:44:07;;;;;;;4.40;0.50;;;18.20;99.90;;;;;;4995833;28;20493;-79
2021/10/06 09:46:53;;;;;;;1.20;0.67;;;17.70;99.90;;;;;;5003201;28;20476;-80
2021/10/06 09:49:25;;;;;;;2.40;0.77;;;17.30;99.90;;;;;;5003333;28;20465;-80
2021/10/06 09:51:55;;;;;;;1.43;0.50;;;17.30;99.90;;;;;;4998125;28;20462;-79
2021/10/06 09:54:25;;;;;;;0.70;0.50;;;17.10;99.90;;;;;;4978464;28;20480;-80
2021/10/06 09:56:53;;;;;;;1.90;0.73;;;16.90;99.90;;;;;;4992334;28;20527;-79
2021/10/06 09:59:21;;;;;;;1.50;0.60;;;16.60;99.90;;;;;;5001689;28;20877;-79
2021/10/06 10:01:50;;;;;;;1.20;0.63;;;16.40;99.90;;;;;;4998150;28;20370;-80
2021/10/06 10:04:19;;;;;;;1.30;0.60;;;16.10;99.90;;;;;;4986080;28;20482;-80
2021/10/06 10:06:47;;;;;;;0.60;0.53;;;16.10;99.90;;;;;;5004108;28;20485;-80
2021/10/06 10:09:16;;;;;;;0.87;0.60;;;16.10;99.90;;;;;;5003165;28;20466;-79
2021/10/06 10:11:45;;;;;;;1.17;0.53;;;16.20;99.90;;;;;;4994469;28;20494;-79
2021/10/06 10:14:14;;;;;;;0.50;0.50;;;16.20;99.90;;;;;;5002214;28;20455;-81
2021/10/06 10:16:42;;;;;;;1.13;0.70;;;16.40;99.90;;;;;;4976494;28;20459;-81
2021/10/06 10:19:11;;;;;;;1.37;0.70;;;16.30;99.90;;;;;;5000662;28;20488;-81
2021/10/06 10:21:43;;;;;;;0.80;0.50;;;16.20;99.90;;;;;;4992183;28;20462;-78
2021/10/06 10:24:14;;;;;;;0.60;0.60;;;15.70;99.90;;;;;;5000095;28;20481;-79
2021/10/06 10:27:04;;;;;;;0.90;0.60;;;15.40;99.90;;;;;;5001584;28;20457;-79
2021/10/06 10:29:34;;;;;;;1.40;0.80;;;15.60;99.90;;;;;;4978884;28;20456;-79
2021/10/06 10:32:04;;;;;;;1.30;0.67;;;15.90;99.90;;;;;;4996932;28;20201;-78
2021/10/06 10:35:09;;;;;;;0.70;0.60;;;16.40;99.90;;;;;;4992497;28;22307;-80
2021/10/06 10:38:14;;;;;;;0.63;0.60;;;17.30;99.90;;;;;;4992343;28;20494;-81
2021/10/06 10:40:48;;;;;;;0.87;0.50;;;18.00;99.90;;;;;;4999185;28;20468;-78
2021/10/06 10:43:20;;;;;;;0.70;0.57;;;18.70;99.90;;;;;;4976593;28;21188;-81
2021/10/06 10:46:07;;;;;;;1.10;0.77;;;19.30;99.90;;;;;;4994100;28;20473;-80
2021/10/06 10:49:04;;;;;;;2.13;0.67;;;19.90;99.90;;;;;;4996807;28;20490;-84
2021/10/06 10:51:44;;;;;;;1.50;0.57;;;20.50;99.90;;;;;;4996106;28;20475;-82
2021/10/06 10:54:13;;;;;;;0.83;0.60;;;20.50;99.90;;;;;;4997301;28;20913;-83
2021/10/06 10:56:49;;;;;;;0.40;0.40;;;20.20;99.90;;;;;;5002365;28;20452;-84
2021/10/06 10:59:21;;;;;;;0.50;0.50;;;19.90;99.90;;;;;;4989006;28;20516;-82
2021/10/06 11:01:55;;;;;;;1.23;0.60;;;19.70;99.90;;;;;;4999772;28;20511;-84
2021/10/06 11:04:27;;;;;;;2.33;0.67;;;18.90;99.90;;;;;;5006994;28;21087;-82
2021/10/06 11:06:57;;;;;;;0.90;0.50;;;18.40;99.90;;;;;;4983302;28;20492;-79
2021/10/06 11:09:41;;;;;;;1.40;0.63;;;18.10;99.90;;;;;;4998309;28;20461;-80
2021/10/06 11:12:43;;;;;;;0.50;0.50;;;17.80;99.90;;;;;;4971823;28;20995;-81
2021/10/06 11:15:32;;;;;;;0.60;0.50;;;17.50;99.90;;;;;;4924331;29;20533;-83
2021/10/06 11:18:38;;;;;;;0.93;0.40;;;17.50;99.90;;;;;;4913754;29;20500;-80
2021/10/06 11:21:10;;;;;;;1.37;0.80;;;17.60;99.90;;;;;;4979907;28;20469;-80
2021/10/06 11:23:43;;;;;;;1.67;0.70;;;17.50;99.90;;;;;;4992896;28;20577;-82
2021/10/06 11:26:14;;;;;;;1.93;1.13;;;17.40;99.90;;;;;;4981221;28;20197;-82
2021/10/06 11:28:44;;;;;;;0.50;0.50;;;16.90;99.90;;;;;;5001713;28;20555;-83
2021/10/06 11:31:15;;;;;;;3.70;0.70;;;17.00;99.90;;;;;;4996629;28;20544;-81
2021/10/06 11:33:44;;;;;;;1.23;0.50;;;17.00;99.90;;;;;;5002718;28;20463;-79
2021/10/06 11:36:15;;;;;;;2.33;0.60;;;16.90;99.90;;;;;;4999884;28;20990;-81
2021/10/06 11:38:46;;;;;;;2.63;0.63;;;16.90;99.90;;;;;;4982734;28;20496;-81
2021/10/06 11:41:15;;;;;;;0.50;0.50;;;16.90;99.90;;;;;;5005303;28;20480;-80
2021/10/06 11:43:46;;;;;;;2.50;0.63;;;16.90;99.90;;;;;;4995161;28;20831;-83
2021/10/06 11:46:22;;;;;;;2.70;0.90;;;16.90;99.90;;;;;;4996842;28;20838;-81
2021/10/06 11:48:56;;;;;;;1.43;0.70;;;16.90;99.90;;;;;;5004340;28;20479;-80
2021/10/06 11:51:39;;;;;;;1.60;0.80;;;16.70;99.90;;;;;;4979633;28;20466;-81
2021/10/06 11:54:08;;;;;;;3.13;0.80;;;16.90;99.90;;;;;;5003353;28;20967;-82
2021/10/06 11:56:37;;;;;;;0.70;0.50;;;17.00;99.90;;;;;;4977248;28;20969;-81
2021/10/06 11:59:08;;;;;;;0.70;0.70;;;17.00;99.90;;;;;;4995326;28;20515;-81
2021/10/06 12:01:39;;;;;;;1.30;0.80;;;16.70;99.90;;;;;;4996744;28;20880;-79
2021/10/06 12:04:15;;;;;;;0.83;0.57;;;16.30;99.90;;;;;;4997143;28;20991;-79
2021/10/06 12:06:45;;;;;;;1.13;0.70;;;16.30;99.90;;;;;;4994820;28;21292;-82
2021/10/06 12:09:14;;;;;;;1.33;0.50;;;16.50;99.90;;;;;;4994101;28;20516;-81
2021/10/06 12:11:45;;;;;;;0.80;0.60;;;16.50;99.90;;;;;;4997249;28;20524;-80
2021/10/06 12:14:34;;;;;;;1.20;0.50;;;16.60;99.90;;;;;;4999488;28;20474;-80
2021/10/06 12:17:14;;;;;;;0.83;0.60;;;16.70;99.90;;;;;;4989831;28;20475;-81
2021/10/06 12:19:53;;;;;;;2.30;0.70;;;16.90;99.90;;;;;;4992086;28;20467;-81
2021/10/06 12:22:21;;;;;;;1.13;0.57;;;16.90;99.90;;;;;;4997398;28;20475;-80
2021/10/06 12:24:49;;;;;;;0.63;0.63;;;16.90;99.90;;;;;;4976801;28;20507;-81
2021/10/06 12:27:27;;;;;;;0.60;0.60;;;17.00;99.90;;;;;;4990652;28;20850;-80
2021/10/06 12:30:10;;;;;;;6.10;0.70;;;17.20;99.90;;;;;;4993972;28;21043;-81
2021/10/06 12:32:42;;;;;;;0.70;0.57;;;17.10;99.90;;;;;;4999960;28;20461;-81
2021/10/06 12:35:12;;;;;;;1.10;0.73;;;17.00;99.90;;;;;;4984394;28;20962;-81
2021/10/06 12:37:53;;;;;;;0.80;0.70;;;17.10;99.90;;;;;;4998522;28;20899;-81
2021/10/06 12:40:35;;;;;;;0.60;0.60;;;17.30;99.90;;;;;;4999366;28;20467;-81
2021/10/06 12:43:05;;;;;;;0.68;0.60;;;17.50;99.90;;;;;;4994893;28;21231;-84
2021/10/06 12:45:34;;;;;;;1.13;0.50;;;17.60;99.90;;;;;;4995161;28;20218;-84
2021/10/06 12:48:03;;;;;;;1.80;0.57;;;17.50;99.90;;;;;;4990859;28;20485;-83
2021/10/06 12:50:32;;;;;;;0.80;0.60;;;17.60;99.90;;;;;;4987068;28;20553;-84
2021/10/06 12:53:08;;;;;;;0.60;0.60;;;17.80;99.90;;;;;;4993190;28;20471;-82
2021/10/06 12:55:36;;;;;;;0.77;0.50;;;17.80;99.90;;;;;;4990439;28;20460;-84
2021/10/06 12:58:07;;;;;;;3.47;0.90;;;17.80;99.90;;;;;;4981985;28;20483;-83
2021/10/06 13:00:35;;;;;;;1.03;0.60;;;17.70;99.90;;;;;;4994576;28;20476;-84
2021/10/06 13:03:06;;;;;;;1.33;0.80;;;17.60;99.90;;;;;;4998047;28;20520;-83
2021/10/06 13:05:34;;;;;;;0.97;0.60;;;17.50;99.90;;;;;;4991537;28;20891;-82
2021/10/06 13:08:12;;;;;;;1.83;0.60;;;17.40;99.90;;;;;;4975262;28;20481;-83